createdAt,value
2022-12-31T00:00:08.245Z,10.40
2022-12-31T00:04:30.037Z,10.50
2022-12-31T00:08:55.030Z,10.50
2022-12-31T00:13:17.258Z,10.60
2022-12-31T00:17:39.434Z,10.50
2022-12-31T00:22:01.050Z,10.50
2022-12-31T00:26:26.650Z,10.40
2022-12-31T00:30:48.566Z,10.50
2022-12-31T00:35:10.674Z,10.60
2022-12-31T00:39:32.585Z,10.60
2022-12-31T00:43:55.160Z,10.60
2022-12-31T00:48:17.200Z,10.60
2022-12-31T00:52:39.151Z,10.50
2022-12-31T00:57:00.933Z,10.50
2022-12-31T01:01:27.613Z,10.50
2022-12-31T01:05:50.425Z,10.60
2022-12-31T01:10:12.416Z,10.70
2022-12-31T01:14:34.267Z,10.90
2022-12-31T01:18:58.619Z,10.80
2022-12-31T01:23:20.171Z,10.80
2022-12-31T01:27:42.001Z,10.80
2022-12-31T01:32:04.187Z,10.70
2022-12-31T01:36:29.472Z,10.70
2022-12-31T01:40:51.449Z,10.90
2022-12-31T01:45:14.473Z,11.00
2022-12-31T01:49:45.117Z,11.00
2022-12-31T01:54:10.645Z,11.00
2022-12-31T01:58:43.121Z,11.20
2022-12-31T02:03:07.587Z,11.30
2022-12-31T02:07:29.526Z,11.30
2022-12-31T02:11:51.580Z,11.40
2022-12-31T02:17:18.872Z,11.40
2022-12-31T02:22:12.429Z,11.50
2022-12-31T02:26:42.983Z,11.60
2022-12-31T02:31:11.367Z,11.70
2022-12-31T02:35:59.861Z,11.70
2022-12-31T02:40:23.269Z,11.80
2022-12-31T02:44:45.097Z,11.80
2022-12-31T02:49:23.390Z,11.80
2022-12-31T02:53:57.166Z,11.90
2022-12-31T02:59:01.395Z,11.90
2022-12-31T03:03:24.157Z,12.00
2022-12-31T03:07:46.069Z,11.90
2022-12-31T03:12:29.647Z,11.90
2022-12-31T03:16:51.802Z,12.00
2022-12-31T03:21:32.712Z,12.10
2022-12-31T03:25:56.441Z,12.10
2022-12-31T03:30:20.528Z,12.10
2022-12-31T03:34:42.286Z,12.20
2022-12-31T03:39:04.857Z,12.30
2022-12-31T03:43:26.703Z,12.40
2022-12-31T03:47:48.644Z,12.60
2022-12-31T03:52:10.394Z,12.70
2022-12-31T03:56:32.317Z,12.80
2022-12-31T04:00:54.290Z,12.80
2022-12-31T04:05:18.019Z,12.80
2022-12-31T04:09:39.701Z,12.80
2022-12-31T04:14:01.572Z,12.90
2022-12-31T04:18:23.438Z,13.00
2022-12-31T04:22:45.443Z,12.90
2022-12-31T04:27:08.171Z,12.80
2022-12-31T04:31:31.079Z,12.70
2022-12-31T04:35:53.426Z,12.70
2022-12-31T04:40:15.345Z,12.70
2022-12-31T04:44:37.237Z,12.60
2022-12-31T04:49:00.537Z,12.70
2022-12-31T04:53:22.219Z,12.70
2022-12-31T04:57:44.129Z,12.70
2022-12-31T05:02:06.416Z,12.60
2022-12-31T05:06:28.961Z,12.60
2022-12-31T05:10:51.390Z,12.70
2022-12-31T05:15:13.293Z,12.80
2022-12-31T05:19:35.389Z,12.80
2022-12-31T05:23:57.364Z,12.90
2022-12-31T05:28:19.780Z,12.90
2022-12-31T05:32:41.630Z,12.90
2022-12-31T05:37:03.744Z,13.00
2022-12-31T05:41:26.085Z,13.00
2022-12-31T05:45:48.302Z,12.90
2022-12-31T05:50:15.832Z,12.90
2022-12-31T05:54:37.664Z,12.80
2022-12-31T05:59:00.058Z,12.70
2022-12-31T06:03:22.246Z,12.60
2022-12-31T06:07:46.567Z,12.60
2022-12-31T06:12:09.464Z,12.60
2022-12-31T06:16:31.332Z,12.70
2022-12-31T06:20:58.547Z,12.80
2022-12-31T06:25:20.663Z,12.80
2022-12-31T06:29:42.838Z,12.80
2022-12-31T06:34:04.607Z,12.90
2022-12-31T06:38:30.662Z,12.90
2022-12-31T06:42:59.697Z,12.90
2022-12-31T06:47:22.510Z,13.10
2022-12-31T06:51:46.266Z,13.30
2022-12-31T06:56:21.226Z,13.40
2022-12-31T07:01:44.673Z,13.30
2022-12-31T07:06:27.967Z,13.30
2022-12-31T07:11:13.431Z,13.30
2022-12-31T07:15:56.190Z,13.20
2022-12-31T07:20:20.141Z,13.30
2022-12-31T07:24:44.023Z,13.30
2022-12-31T07:29:46.204Z,13.40
2022-12-31T07:34:28.123Z,13.50
2022-12-31T07:39:16.879Z,13.60
2022-12-31T07:44:35.400Z,13.70
2022-12-31T07:48:58.650Z,13.80
2022-12-31T07:53:21.233Z,13.90
2022-12-31T07:58:22.298Z,14.10
2022-12-31T08:03:37.181Z,14.40
2022-12-31T08:08:38.293Z,14.50
2022-12-31T08:13:10.517Z,14.60
2022-12-31T08:17:32.623Z,14.60
2022-12-31T08:22:25.328Z,14.50
2022-12-31T08:27:07.907Z,14.60
2022-12-31T08:31:45.234Z,14.60
2022-12-31T08:36:33.109Z,14.70
2022-12-31T08:41:06.164Z,14.70
2022-12-31T08:45:52.983Z,14.70
2022-12-31T08:50:18.642Z,14.90
2022-12-31T08:54:40.656Z,15.20
2022-12-31T08:59:36.890Z,15.50
2022-12-31T09:04:36.193Z,15.60
2022-12-31T09:09:10.840Z,15.70
2022-12-31T09:14:09.070Z,15.90
2022-12-31T09:18:34.768Z,16.20
2022-12-31T09:22:58.045Z,16.30
2022-12-31T09:27:30.356Z,16.30
2022-12-31T09:32:04.508Z,16.30
2022-12-31T09:36:44.178Z,16.40
2022-12-31T09:41:41.480Z,16.50
2022-12-31T09:46:45.699Z,16.40
2022-12-31T09:51:35.264Z,16.30
2022-12-31T09:56:35.045Z,16.20
2022-12-31T10:01:13.080Z,16.30
2022-12-31T10:06:08.419Z,16.40
2022-12-31T10:10:43.807Z,16.50
2022-12-31T10:15:40.670Z,16.60
2022-12-31T10:20:14.771Z,16.60
2022-12-31T10:25:39.182Z,16.50
2022-12-31T10:30:24.384Z,16.50
2022-12-31T10:35:12.183Z,16.60
2022-12-31T10:39:55.528Z,16.60
2022-12-31T10:45:07.857Z,16.60
2022-12-31T10:49:53.995Z,16.60
2022-12-31T10:54:50.028Z,16.60
2022-12-31T10:59:32.865Z,16.70
2022-12-31T11:04:39.970Z,16.80
2022-12-31T11:09:41.541Z,16.80
2022-12-31T11:14:24.900Z,16.80
2022-12-31T11:19:25.938Z,16.90
2022-12-31T11:23:53.639Z,17.20
2022-12-31T11:28:52.987Z,17.40
2022-12-31T11:33:49.995Z,17.30
2022-12-31T11:38:40.804Z,17.30
2022-12-31T11:43:26.659Z,17.30
2022-12-31T11:48:32.234Z,17.20
2022-12-31T11:53:50.801Z,17.20
2022-12-31T11:58:20.656Z,17.10
2022-12-31T12:02:50.289Z,17.00
2022-12-31T12:07:15.593Z,17.20
2022-12-31T12:11:41.145Z,17.70
2022-12-31T12:16:07.411Z,17.90
2022-12-31T12:20:34.375Z,17.80
2022-12-31T12:25:03.717Z,17.60
2022-12-31T12:29:34.604Z,17.40
2022-12-31T12:33:56.303Z,17.30
2022-12-31T12:38:21.858Z,17.20
2022-12-31T12:42:48.978Z,17.40
2022-12-31T12:47:17.477Z,17.50
2022-12-31T12:52:28.258Z,17.30
2022-12-31T12:57:15.691Z,17.30
2022-12-31T13:02:17.733Z,17.30
2022-12-31T13:07:12.256Z,17.20
2022-12-31T13:12:27.877Z,17.10
2022-12-31T13:17:04.376Z,17.00
2022-12-31T13:22:11.575Z,16.90
2022-12-31T13:26:41.227Z,16.80
2022-12-31T13:31:14.143Z,16.70
2022-12-31T13:35:59.471Z,16.50
2022-12-31T13:41:12.964Z,16.40
2022-12-31T13:45:42.953Z,16.30
2022-12-31T13:50:26.799Z,16.20
2022-12-31T13:55:24.073Z,16.20
2022-12-31T13:59:51.809Z,16.10
2022-12-31T14:04:37.744Z,16.00
2022-12-31T14:09:00.730Z,16.00
2022-12-31T14:14:02.427Z,15.90
2022-12-31T14:18:52.755Z,16.00
2022-12-31T14:23:37.777Z,16.00
2022-12-31T14:28:01.849Z,15.90
2022-12-31T14:32:54.280Z,15.80
2022-12-31T14:38:00.786Z,15.70
2022-12-31T14:42:36.359Z,15.70
2022-12-31T14:47:22.393Z,15.70
2022-12-31T14:51:44.193Z,15.60
2022-12-31T14:56:27.393Z,15.50
2022-12-31T15:01:14.965Z,15.40
2022-12-31T15:05:38.462Z,15.30
2022-12-31T15:10:23.201Z,15.30
2022-12-31T15:15:07.865Z,15.30
2022-12-31T15:19:51.475Z,15.20
2022-12-31T15:24:22.680Z,15.10
2022-12-31T15:28:44.652Z,15.10
2022-12-31T15:33:18.682Z,15.00
2022-12-31T15:37:41.395Z,15.00
2022-12-31T15:42:36.726Z,15.00
2022-12-31T15:46:47.556Z,15.00
2022-12-31T15:51:22.341Z,14.90
2022-12-31T15:55:52.145Z,14.90
2022-12-31T16:00:21.975Z,15.00
2022-12-31T16:04:44.441Z,15.00
2022-12-31T16:09:34.828Z,15.00
2022-12-31T16:13:59.433Z,15.20
2022-12-31T16:18:23.174Z,15.10
2022-12-31T16:22:53.357Z,15.10
2022-12-31T16:27:17.402Z,15.10
2022-12-31T16:31:40.690Z,15.10
2022-12-31T16:36:02.746Z,14.90
2022-12-31T16:40:24.864Z,14.90
2022-12-31T16:44:48.668Z,14.90
2022-12-31T16:49:22.259Z,15.00
2022-12-31T16:53:44.948Z,15.00
2022-12-31T16:58:45.289Z,15.00
2022-12-31T17:03:18.852Z,15.00
2022-12-31T17:07:42.419Z,15.00
2022-12-31T17:12:16.835Z,15.00
2022-12-31T17:17:03.282Z,15.20
2022-12-31T17:21:29.049Z,15.30
2022-12-31T17:26:03.279Z,15.40
2022-12-31T17:30:32.710Z,15.40
2022-12-31T17:34:55.014Z,15.40
2022-12-31T17:39:22.895Z,15.40
2022-12-31T17:43:44.748Z,15.30
2022-12-31T17:48:06.673Z,15.10
2022-12-31T17:52:28.374Z,15.00
2022-12-31T17:56:51.693Z,15.10
2022-12-31T18:01:20.446Z,15.00
2022-12-31T18:05:42.546Z,15.00
2022-12-31T18:10:04.824Z,14.90
2022-12-31T18:14:26.424Z,14.90
2022-12-31T18:18:48.302Z,14.80
2022-12-31T18:23:28.662Z,14.80
2022-12-31T18:27:52.830Z,14.80
2022-12-31T18:32:28.169Z,14.90
2022-12-31T18:36:50.138Z,15.10
2022-12-31T18:41:27.783Z,15.10
2022-12-31T18:45:51.867Z,15.00
2022-12-31T18:50:17.535Z,15.10
2022-12-31T18:54:39.444Z,15.10
2022-12-31T18:59:02.733Z,15.10
2022-12-31T19:03:27.470Z,14.90
2022-12-31T19:07:49.226Z,14.90
2022-12-31T19:12:15.116Z,14.90
2022-12-31T19:16:36.777Z,14.90
2022-12-31T19:20:58.728Z,14.80
2022-12-31T19:25:25.672Z,14.80
2022-12-31T19:29:47.390Z,14.80
2022-12-31T19:34:09.462Z,14.70
2022-12-31T19:38:32.662Z,14.70
2022-12-31T19:42:55.960Z,14.90
2022-12-31T19:47:17.955Z,14.90
2022-12-31T19:51:41.281Z,14.80
2022-12-31T19:56:03.310Z,14.70
2022-12-31T20:00:24.983Z,14.70
2022-12-31T20:04:46.804Z,15.00
2022-12-31T20:09:09.003Z,15.10
2022-12-31T20:13:30.691Z,15.10
2022-12-31T20:17:52.518Z,15.30
2022-12-31T20:22:14.456Z,15.30
2022-12-31T20:26:36.894Z,15.50
2022-12-31T20:30:59.070Z,15.60
2022-12-31T20:35:21.556Z,15.60
2022-12-31T20:39:44.071Z,15.60
2022-12-31T20:44:05.876Z,15.50
2022-12-31T20:48:27.862Z,15.50
2022-12-31T20:52:49.901Z,15.50
2022-12-31T20:57:11.724Z,15.50
2022-12-31T21:01:55.486Z,15.50
2022-12-31T21:06:15.869Z,15.60
2022-12-31T21:10:37.817Z,15.60
2022-12-31T21:14:59.821Z,15.80
2022-12-31T21:19:21.796Z,15.80
2022-12-31T21:23:43.654Z,15.80
2022-12-31T21:28:05.729Z,15.90
2022-12-31T21:32:27.802Z,15.90
2022-12-31T21:36:49.843Z,15.90
2022-12-31T21:41:33.435Z,15.80
2022-12-31T21:46:07.474Z,15.80
2022-12-31T21:50:29.636Z,15.90
2022-12-31T21:55:14.162Z,15.90
2022-12-31T22:00:24.114Z,15.80
2022-12-31T22:05:01.360Z,15.70
2022-12-31T22:09:17.973Z,15.70
2022-12-31T22:13:40.988Z,15.80
2022-12-31T22:18:03.032Z,15.90
2022-12-31T22:22:24.669Z,16.00
2022-12-31T22:26:47.041Z,16.10
2022-12-31T22:31:13.703Z,16.10
2022-12-31T22:35:35.454Z,16.10
2022-12-31T22:39:57.381Z,16.10
2022-12-31T22:44:19.309Z,16.00
2022-12-31T22:48:42.238Z,16.10
2022-12-31T22:53:03.856Z,16.00
2022-12-31T22:57:26.723Z,15.90
2022-12-31T23:01:48.335Z,15.90
2022-12-31T23:06:10.352Z,15.90
2022-12-31T23:10:51.041Z,15.80
2022-12-31T23:15:32.015Z,15.80
2022-12-31T23:20:12.812Z,15.60
2022-12-31T23:24:34.867Z,15.50
2022-12-31T23:28:56.723Z,15.50
2022-12-31T23:33:25.777Z,15.60
2022-12-31T23:37:47.846Z,15.70
2022-12-31T23:42:09.798Z,15.60
2022-12-31T23:46:31.910Z,15.30
2022-12-31T23:50:54.503Z,15.20
2022-12-31T23:55:16.334Z,15.20
2022-12-31T23:59:38.460Z,15.30
